Saint Petersburg, Russia
Current Conditions -  °F | °C
As of 7:00 AM on Saturday 25 Oct 2014 (Local Time) from ULLI Reporting Station
Clear Clear  
Wind Chill: -9°   Ceiling: Unl
Heat Index: -3°   Visibility: 6mi
Dew Point: -6°   Wind: 11mph
Humidity: 80%   Direction: 160°SSE
Pressure: 30.45"   Gusts: NA
Location:  59.93°N, 30.32°E
Report Text: ULLI 250400Z 16005MPS CAVOK M03/M06 Q1031 60190045 10190060NOSIG
Loading
Personal Weather Stations






























Interactive Weather Map
Tropical Storm Tracking
New forecast layout! Learn more

10-Day Weather Forecast

Advertisements
Track Severe Weather on mobile